Time;durP1;ratioP1;P1;durP2;ratioP2;P2;SDS_P1;SDS_P2;PMS_P1;PMS_P2;Temp;Humidity;BMP_temperature;BMP_pressure;BME280_temperature;BME280_humidity;BME280_pressure;Samples;Min_cycle;Max_cycle;Signal;HPM_P1;HPM_P2
2021/10/29 00:01:34;;;;;;;0.32;0.32;;;7.20;99.90;;;;;;5034443;28;20033;-66
2021/10/29 00:04:00;;;;;;;0.17;0.17;;;7.10;99.90;;;;;;5034177;28;20041;-66
2021/10/29 00:06:25;;;;;;;0.38;0.38;;;7.20;99.90;;;;;;5034205;28;20437;-66
2021/10/29 00:08:51;;;;;;;1.63;1.23;;;7.20;99.90;;;;;;5049755;28;20074;-66
2021/10/29 00:11:17;;;;;;;1.48;0.95;;;7.20;99.90;;;;;;5049388;28;20028;-66
2021/10/29 00:13:43;;;;;;;1.40;1.30;;;7.30;99.90;;;;;;5034529;28;20065;-66
2021/10/29 00:16:08;;;;;;;2.53;1.35;;;7.30;99.90;;;;;;5034230;28;20025;-66
2021/10/29 00:18:34;;;;;;;0.75;0.75;;;7.20;99.90;;;;;;5034389;28;20061;-66
2021/10/29 00:21:00;;;;;;;1.80;1.70;;;7.20;99.90;;;;;;5033962;28;20046;-66
2021/10/29 00:23:27;;;;;;;0.28;0.28;;;7.30;99.90;;;;;;5034064;28;20037;-66
2021/10/29 00:25:53;;;;;;;1.15;1.02;;;7.30;99.90;;;;;;5034206;28;20077;-66
2021/10/29 00:28:19;;;;;;;0.40;0.40;;;7.30;99.90;;;;;;5049325;28;20124;-66
2021/10/29 00:30:45;;;;;;;3.05;2.53;;;7.30;99.90;;;;;;5033924;28;20029;-66
2021/10/29 00:33:11;;;;;;;2.22;1.27;;;7.30;99.90;;;;;;5033643;28;20037;-66
2021/10/29 00:35:37;;;;;;;3.40;1.08;;;7.40;99.90;;;;;;5033801;28;20025;-66
2021/10/29 00:38:03;;;;;;;3.10;2.10;;;7.40;99.90;;;;;;5033901;28;20083;-66
2021/10/29 00:40:28;;;;;;;1.80;1.00;;;7.50;99.90;;;;;;5049383;28;20044;-66
2021/10/29 00:42:54;;;;;;;1.20;0.30;;;7.50;99.90;;;;;;5033837;28;20056;-66
2021/10/29 00:45:20;;;;;;;1.25;1.25;;;7.50;99.90;;;;;;5033563;28;20068;-66
2021/10/29 00:47:46;;;;;;;0.80;0.68;;;7.50;99.90;;;;;;5033495;28;20040;-66
2021/10/29 00:50:12;;;;;;;0.30;0.30;;;7.50;99.90;;;;;;5032142;28;20021;-66
2021/10/29 00:52:38;;;;;;;1.80;1.70;;;7.50;99.90;;;;;;5033412;28;20057;-66
2021/10/29 00:55:05;;;;;;;1.40;1.30;;;7.40;99.90;;;;;;5033011;28;20061;-66
2021/10/29 00:57:31;;;;;;;2.28;2.08;;;7.40;99.90;;;;;;5048572;28;20030;-66
2021/10/29 00:59:58;;;;;;;1.33;1.23;;;7.50;99.90;;;;;;5048748;28;20037;-66
2021/10/29 01:02:23;;;;;;;2.63;2.42;;;7.40;99.90;;;;;;5033156;28;20029;-66
2021/10/29 01:04:49;;;;;;;1.13;1.13;;;7.40;99.90;;;;;;5033144;28;20033;-66
2021/10/29 01:07:15;;;;;;;0.75;0.75;;;7.40;99.90;;;;;;5048339;28;20056;-66
2021/10/29 01:09:41;;;;;;;0.70;0.70;;;7.40;99.90;;;;;;5048781;28;20060;-66
2021/10/29 01:12:07;;;;;;;1.65;1.55;;;7.50;99.90;;;;;;5033002;28;20144;-66
2021/10/29 01:14:33;;;;;;;0.32;0.32;;;7.50;99.90;;;;;;5033383;28;20029;-66
2021/10/29 01:16:59;;;;;;;0.32;0.32;;;7.50;99.90;;;;;;5048421;28;20375;-66
2021/10/29 01:19:32;;;;;;;11.13;2.65;;;7.50;99.90;;;;;;5033155;28;20067;-66
2021/10/29 01:21:58;;;;;;;1.45;1.10;;;7.60;99.90;;;;;;5031647;28;20563;-66
2021/10/29 01:24:24;;;;;;;2.25;2.00;;;7.50;99.90;;;;;;5032969;28;20152;-66
2021/10/29 01:26:50;;;;;;;3.17;2.97;;;7.50;99.90;;;;;;5033007;28;20096;-66
2021/10/29 01:29:16;;;;;;;0.25;0.25;;;7.60;99.90;;;;;;5032509;28;20582;-66
2021/10/29 01:31:43;;;;;;;1.33;1.27;;;7.60;99.90;;;;;;5048226;28;20136;-66
2021/10/29 01:34:08;;;;;;;1.45;1.35;;;7.60;99.90;;;;;;5032574;28;20109;-66
2021/10/29 01:36:35;;;;;;;0.77;0.77;;;7.50;99.90;;;;;;5032969;28;20107;-66
2021/10/29 01:39:01;;;;;;;1.40;1.23;;;7.50;99.90;;;;;;5032750;28;20077;-66
2021/10/29 01:41:27;;;;;;;0.75;0.75;;;7.50;99.90;;;;;;5032605;28;20064;-66
2021/10/29 01:43:52;;;;;;;1.25;1.15;;;7.50;99.90;;;;;;5031195;28;20390;-66
2021/10/29 01:46:19;;;;;;;0.30;0.30;;;7.50;99.90;;;;;;5032587;28;20043;-67
2021/10/29 01:48:51;;;;;;;0.43;0.43;;;7.40;99.90;;;;;;5032714;28;20037;-66
2021/10/29 01:51:17;;;;;;;3.60;1.30;;;7.30;99.90;;;;;;5032436;28;20040;-66
2021/10/29 01:53:47;;;;;;;2.08;1.98;;;7.30;99.90;;;;;;5032414;28;20032;-66
2021/10/29 01:56:13;;;;;;;0.22;0.22;;;7.20;99.90;;;;;;5032438;28;20021;-66
2021/10/29 01:58:39;;;;;;;1.52;1.42;;;7.30;99.90;;;;;;5032588;28;20095;-66
2021/10/29 02:01:06;;;;;;;5.45;2.30;;;7.30;99.90;;;;;;5032163;28;20025;-66
2021/10/29 02:03:33;;;;;;;1.73;1.42;;;7.30;99.90;;;;;;5032229;28;20505;-66
2021/10/29 02:05:59;;;;;;;0.65;0.65;;;7.30;99.90;;;;;;5047410;28;20513;-66
2021/10/29 02:08:27;;;;;;;1.75;1.35;;;7.30;99.90;;;;;;5032125;28;20065;-66
2021/10/29 02:10:54;;;;;;;2.03;1.92;;;7.30;99.90;;;;;;5032286;28;20029;-66
2021/10/29 02:13:21;;;;;;;2.28;2.08;;;7.30;99.90;;;;;;5031957;28;20033;-65
2021/10/29 02:15:48;;;;;;;1.55;0.65;;;7.30;99.90;;;;;;5032400;28;20037;-66
2021/10/29 02:18:15;;;;;;;0.43;0.43;;;7.30;99.90;;;;;;5047297;28;20482;-66
2021/10/29 02:20:41;;;;;;;0.35;0.35;;;7.20;99.90;;;;;;5047334;28;20050;-67
2021/10/29 02:23:07;;;;;;;0.43;0.43;;;7.00;99.90;;;;;;5047192;28;20033;-66
2021/10/29 02:25:33;;;;;;;2.90;2.47;;;6.90;99.90;;;;;;5032312;28;20029;-66
2021/10/29 02:27:58;;;;;;;2.00;1.67;;;6.80;99.90;;;;;;5032009;28;20041;-65
2021/10/29 02:30:24;;;;;;;1.20;1.13;;;6.80;99.90;;;;;;5047671;28;20037;-66
2021/10/29 02:32:50;;;;;;;0.80;0.65;;;6.60;99.90;;;;;;5032036;28;20419;-66
2021/10/29 02:35:16;;;;;;;0.25;0.25;;;6.60;99.90;;;;;;5047188;28;20053;-66
2021/10/29 02:37:41;;;;;;;5.10;2.08;;;6.60;99.90;;;;;;5032285;28;20035;-66
2021/10/29 02:40:08;;;;;;;2.53;1.50;;;6.60;99.90;;;;;;5033388;28;20056;-66
2021/10/29 02:42:34;;;;;;;0.20;0.20;;;6.70;99.90;;;;;;5035891;28;20030;-66
2021/10/29 02:44:59;;;;;;;0.73;0.73;;;6.60;99.90;;;;;;5036110;28;20036;-66
2021/10/29 02:47:26;;;;;;;3.20;2.80;;;6.40;99.90;;;;;;5035985;28;20084;-66
2021/10/29 02:49:52;;;;;;;0.68;0.68;;;6.40;99.90;;;;;;5051363;28;20099;-66
2021/10/29 02:52:18;;;;;;;1.48;1.38;;;6.50;99.90;;;;;;5051006;28;20030;-66
2021/10/29 02:54:43;;;;;;;1.48;0.93;;;6.50;99.90;;;;;;5035912;28;20030;-66
2021/10/29 02:57:09;;;;;;;4.63;2.65;;;6.50;99.90;;;;;;5035722;28;20056;-66
2021/10/29 02:59:35;;;;;;;0.10;0.10;;;6.50;99.90;;;;;;5035791;28;20026;-66
2021/10/29 03:02:01;;;;;;;4.25;0.90;;;6.50;99.90;;;;;;5035791;28;20036;-66
2021/10/29 03:04:27;;;;;;;0.20;0.20;;;6.50;99.90;;;;;;5035315;28;20033;-66
2021/10/29 03:06:53;;;;;;;0.55;0.55;;;6.50;99.90;;;;;;5035686;28;20029;-66
2021/10/29 03:09:18;;;;;;;1.08;1.08;;;6.50;99.90;;;;;;5035424;28;20204;-66
2021/10/29 03:11:44;;;;;;;0.73;0.73;;;6.60;99.90;;;;;;5035663;28;20498;-66
2021/10/29 03:14:10;;;;;;;1.15;1.10;;;6.60;99.90;;;;;;5050509;28;20037;-67
2021/10/29 03:16:36;;;;;;;0.45;0.45;;;6.60;99.90;;;;;;5035573;28;20592;-66
2021/10/29 03:19:02;;;;;;;1.23;1.20;;;6.60;99.90;;;;;;5035181;28;20124;-66
2021/10/29 03:21:28;;;;;;;1.30;0.73;;;6.60;99.90;;;;;;5050379;28;20038;-66
2021/10/29 03:23:54;;;;;;;3.60;1.65;;;6.60;99.90;;;;;;5035089;28;20044;-66
2021/10/29 03:26:20;;;;;;;0.65;0.65;;;6.60;99.90;;;;;;5035011;28;20037;-66
2021/10/29 03:28:45;;;;;;;0.73;0.63;;;6.60;99.90;;;;;;5050365;28;20044;-66
2021/10/29 03:31:11;;;;;;;3.05;1.50;;;6.50;99.90;;;;;;5035311;28;20087;-66
2021/10/29 03:33:39;;;;;;;1.13;1.10;;;6.50;99.90;;;;;;5035115;28;20030;-66
2021/10/29 03:36:09;;;;;;;1.58;1.48;;;6.60;99.90;;;;;;5034950;28;20037;-65
2021/10/29 03:39:00;;;;;;;1.55;1.45;;;6.50;99.90;;;;;;5035224;28;20570;-66
2021/10/29 03:41:24;;;;;;;1.65;1.23;;;6.50;99.90;;;;;;5034586;28;20038;-66
2021/10/29 03:43:54;;;;;;;0.52;0.52;;;6.50;99.90;;;;;;5029254;28;20481;-66
2021/10/29 03:46:28;;;;;;;0.15;0.15;;;6.40;99.90;;;;;;5054186;28;20048;-66
2021/10/29 03:49:13;;;;;;;1.67;1.60;;;6.50;99.90;;;;;;5069370;28;20069;-66
2021/10/29 03:51:46;;;;;;;0.70;0.70;;;6.50;99.90;;;;;;5042821;28;20510;-66
2021/10/29 03:54:17;;;;;;;0.20;0.20;;;6.60;99.90;;;;;;5046389;28;20381;-66
2021/10/29 03:56:54;;;;;;;1.42;1.33;;;6.60;99.90;;;;;;5054163;28;20017;-68
2021/10/29 03:59:20;;;;;;;1.45;1.35;;;6.60;99.90;;;;;;5053841;28;20029;-65
2021/10/29 04:01:46;;;;;;;0.30;0.30;;;6.50;99.90;;;;;;5054315;28;20029;-64
2021/10/29 04:04:12;;;;;;;3.00;2.80;;;6.50;99.90;;;;;;5052566;28;20037;-65
2021/10/29 04:06:38;;;;;;;2.33;2.13;;;6.50;99.90;;;;;;5054312;28;20037;-65
2021/10/29 04:09:04;;;;;;;0.15;0.15;;;6.50;99.90;;;;;;5052939;28;20036;-64
2021/10/29 04:11:36;;;;;;;0.55;0.55;;;6.60;99.90;;;;;;5054073;28;20037;-64
2021/10/29 04:14:05;;;;;;;2.00;1.58;;;6.60;99.90;;;;;;5061019;28;20025;-65
2021/10/29 04:16:36;;;;;;;2.80;2.60;;;6.50;99.90;;;;;;5053506;28;20029;-65
2021/10/29 04:19:06;;;;;;;1.92;1.83;;;6.50;99.90;;;;;;5069266;28;20025;-65
2021/10/29 04:21:32;;;;;;;7.88;1.45;;;6.50;99.90;;;;;;5069826;28;20115;-68
2021/10/29 04:23:58;;;;;;;0.50;0.50;;;6.50;99.90;;;;;;5068833;28;20033;-66
2021/10/29 04:26:24;;;;;;;1.35;1.20;;;6.50;99.90;;;;;;5053272;28;20035;-67
2021/10/29 04:28:55;;;;;;;4.80;2.25;;;6.50;99.90;;;;;;5053504;28;20021;-65
2021/10/29 04:31:29;;;;;;;1.60;1.50;;;6.50;99.90;;;;;;5053171;28;20112;-70
2021/10/29 04:33:55;;;;;;;0.10;0.10;;;6.50;99.90;;;;;;5069074;28;20098;-66
2021/10/29 04:36:23;;;;;;;2.38;2.17;;;6.60;99.90;;;;;;5053284;28;20052;-65
2021/10/29 04:38:49;;;;;;;0.60;0.60;;;6.50;99.90;;;;;;5069254;28;20044;-67
2021/10/29 04:41:16;;;;;;;2.95;2.75;;;6.40;99.90;;;;;;5053391;28;20037;-67
2021/10/29 04:43:43;;;;;;;0.85;0.77;;;6.40;99.90;;;;;;5068958;28;20044;-66
2021/10/29 04:46:09;;;;;;;1.88;1.75;;;6.30;99.90;;;;;;5053259;28;20033;-70
2021/10/29 04:48:36;;;;;;;4.38;1.85;;;6.60;99.90;;;;;;5053192;28;20060;-63
2021/10/29 04:51:02;;;;;;;2.22;2.05;;;6.50;99.90;;;;;;5055539;28;20108;-64
2021/10/29 04:53:28;;;;;;;0.47;0.47;;;6.50;99.90;;;;;;5066852;28;20033;-65
2021/10/29 04:55:54;;;;;;;0.98;0.98;;;6.40;99.90;;;;;;5052932;28;20045;-66
2021/10/29 04:58:20;;;;;;;1.13;1.13;;;6.40;99.90;;;;;;5052381;28;20041;-66
2021/10/29 05:00:47;;;;;;;1.52;1.40;;;6.40;99.90;;;;;;5068483;28;20154;-66
2021/10/29 05:03:13;;;;;;;0.10;0.10;;;6.40;99.90;;;;;;5052123;28;20033;-66
2021/10/29 05:05:38;;;;;;;7.32;3.22;;;6.30;99.90;;;;;;5053146;28;20036;-66
2021/10/29 05:08:05;;;;;;;1.13;1.13;;;6.30;99.90;;;;;;5052987;28;20038;-66
2021/10/29 05:10:32;;;;;;;0.30;0.30;;;6.30;99.90;;;;;;5052717;28;20025;-66
2021/10/29 05:12:59;;;;;;;0.20;0.20;;;6.30;99.90;;;;;;5053171;28;20104;-66
2021/10/29 05:15:25;;;;;;;1.45;1.35;;;6.30;99.90;;;;;;5052521;28;20029;-66
2021/10/29 05:17:53;;;;;;;2.38;2.03;;;6.20;99.90;;;;;;5053071;28;20059;-66
2021/10/29 05:20:20;;;;;;;0.75;0.75;;;6.20;99.90;;;;;;5067593;28;20045;-66
2021/10/29 05:22:46;;;;;;;4.82;4.10;;;6.10;99.90;;;;;;5052325;28;20025;-66
2021/10/29 05:25:12;;;;;;;0.88;0.85;;;6.00;99.90;;;;;;5052221;28;20045;-65
2021/10/29 05:27:38;;;;;;;0.70;0.70;;;5.90;99.90;;;;;;5052371;28;20107;-66
2021/10/29 05:30:10;;;;;;;2.67;1.25;;;5.90;99.90;;;;;;5051667;28;20037;-65
2021/10/29 05:32:37;;;;;;;0.45;0.45;;;5.80;99.90;;;;;;5052627;28;20043;-69
2021/10/29 05:35:05;;;;;;;0.60;0.60;;;5.80;99.90;;;;;;5052705;28;20082;-69
2021/10/29 05:37:33;;;;;;;0.55;0.55;;;5.80;99.90;;;;;;5052129;28;20037;-70
2021/10/29 05:39:59;;;;;;;0.15;0.15;;;5.70;99.90;;;;;;5052711;28;20087;-69
2021/10/29 05:42:26;;;;;;;0.52;0.52;;;5.70;99.90;;;;;;5052451;28;20061;-69
2021/10/29 05:44:55;;;;;;;1.15;1.10;;;5.70;99.90;;;;;;5052372;28;20040;-70
2021/10/29 05:47:21;;;;;;;2.00;1.85;;;5.70;99.90;;;;;;5052119;28;20029;-65
2021/10/29 05:49:48;;;;;;;0.68;0.68;;;5.60;99.90;;;;;;5052140;28;20033;-66
2021/10/29 05:52:22;;;;;;;3.22;1.15;;;5.60;99.90;;;;;;5052024;28;20025;-66
2021/10/29 05:57:17;;;;;;;1.15;0.93;;;5.50;99.90;;;;;;5050776;28;20429;-65
2021/10/29 05:59:43;;;;;;;1.63;1.52;;;5.40;99.90;;;;;;5051927;28;20083;-65
2021/10/29 06:02:08;;;;;;;0.52;0.52;;;5.30;99.90;;;;;;5051095;28;20057;-65
2021/10/29 06:04:37;;;;;;;1.45;1.02;;;5.30;99.90;;;;;;5052123;28;20029;-65
2021/10/29 06:07:04;;;;;;;0.20;0.20;;;5.30;99.90;;;;;;5052097;28;20025;-65
2021/10/29 06:09:30;;;;;;;4.95;1.52;;;5.40;99.90;;;;;;5051794;28;20040;-65
2021/10/29 06:11:57;;;;;;;0.15;0.15;;;5.30;99.90;;;;;;5051077;28;20029;-66
2021/10/29 06:14:24;;;;;;;0.17;0.17;;;5.30;99.90;;;;;;5050699;28;20082;-65
2021/10/29 06:16:50;;;;;;;0.30;0.30;;;5.30;99.90;;;;;;5051918;28;20079;-65
2021/10/29 06:19:18;;;;;;;0.50;0.50;;;5.30;99.90;;;;;;5050644;28;20036;-65
2021/10/29 06:24:15;;;;;;;7.00;1.40;;;5.40;99.90;;;;;;5050505;28;20036;-66
2021/10/29 06:26:56;;;;;;;1.90;1.80;;;5.40;99.90;;;;;;5051845;28;20155;-66
2021/10/29 06:29:22;;;;;;;0.47;0.47;;;5.40;99.90;;;;;;5050821;28;20029;-65
2021/10/29 06:31:48;;;;;;;4.30;2.08;;;5.50;99.90;;;;;;5050748;28;20174;-66
2021/10/29 06:34:14;;;;;;;7.80;1.20;;;5.50;99.90;;;;;;5050938;28;20040;-65
2021/10/29 06:36:41;;;;;;;1.20;1.17;;;5.50;99.90;;;;;;5050528;28;20456;-65
2021/10/29 06:39:08;;;;;;;1.15;1.10;;;5.50;99.90;;;;;;5051885;28;20037;-66
2021/10/29 06:41:35;;;;;;;3.15;2.90;;;5.50;99.90;;;;;;5051776;28;20474;-66
2021/10/29 06:44:20;;;;;;;5.30;4.85;;;5.50;99.90;;;;;;5034013;28;20402;-66
2021/10/29 07:41:10;;;;;;;1.35;1.25;;;6.20;99.90;;;;;;5056249;28;20048;-68
2021/10/29 07:46:05;;;;;;;1.08;0.98;;;6.10;99.90;;;;;;5054830;28;20570;-65
2021/10/29 07:48:33;;;;;;;3.33;3.13;;;6.00;99.90;;;;;;5054399;28;20037;-67
2021/10/29 07:51:11;;;;;;;1.50;1.08;;;5.80;99.90;;;;;;5053441;28;20095;-68
2021/10/29 07:53:37;;;;;;;2.15;2.00;;;5.80;99.90;;;;;;5054708;28;20040;-68
2021/10/29 07:56:05;;;;;;;0.20;0.20;;;5.80;99.90;;;;;;5054550;28;20029;-68
2021/10/29 07:58:37;;;;;;;1.38;1.27;;;5.80;99.90;;;;;;5054104;28;20071;-68
2021/10/29 08:01:04;;;;;;;1.30;1.20;;;5.70;99.90;;;;;;5054715;28;20461;-68
2021/10/29 08:03:30;;;;;;;0.77;0.77;;;5.80;99.90;;;;;;5052834;28;20033;-68
2021/10/29 08:05:56;;;;;;;0.40;0.40;;;5.80;99.90;;;;;;5069876;28;20030;-68
2021/10/29 08:08:22;;;;;;;0.65;0.65;;;5.60;99.90;;;;;;5054393;28;20025;-68
2021/10/29 08:10:50;;;;;;;0.60;0.60;;;5.60;99.90;;;;;;5054138;28;20086;-68
2021/10/29 08:13:16;;;;;;;0.30;0.30;;;5.60;99.90;;;;;;5069779;28;20468;-68
2021/10/29 08:15:43;;;;;;;0.77;0.77;;;5.70;99.90;;;;;;5069312;28;20029;-69
2021/10/29 08:18:10;;;;;;;0.28;0.28;;;5.70;99.90;;;;;;5054534;28;20037;-68
2021/10/29 08:20:37;;;;;;;1.05;1.05;;;5.80;99.90;;;;;;5069116;28;20382;-68
2021/10/29 08:23:07;;;;;;;0.20;0.20;;;5.90;99.90;;;;;;5068879;28;20036;-68
2021/10/29 08:25:32;;;;;;;7.38;2.38;;;6.00;99.90;;;;;;5053676;28;20044;-68
2021/10/29 08:27:58;;;;;;;1.25;1.15;;;6.10;99.90;;;;;;5069526;28;20029;-69
2021/10/29 08:30:24;;;;;;;1.27;1.20;;;6.00;99.90;;;;;;5069836;28;20478;-69
2021/10/29 08:32:51;;;;;;;0.90;0.90;;;6.00;99.90;;;;;;5052655;28;20036;-68
2021/10/29 08:35:18;;;;;;;2.08;1.92;;;6.10;99.90;;;;;;5069365;28;20033;-69
2021/10/29 08:37:50;;;;;;;3.28;1.88;;;6.20;99.90;;;;;;5067517;28;20091;-68
2021/10/29 08:40:17;;;;;;;1.52;1.42;;;6.30;99.90;;;;;;5052677;28;20029;-69
2021/10/29 08:42:44;;;;;;;2.92;2.70;;;6.40;99.90;;;;;;5053669;28;20036;-69
2021/10/29 08:45:11;;;;;;;2.78;2.53;;;6.40;99.90;;;;;;5053559;28;20031;-69
2021/10/29 08:47:43;;;;;;;0.50;0.50;;;6.50;99.90;;;;;;5052378;28;20037;-69
2021/10/29 08:50:17;;;;;;;0.68;0.68;;;6.70;99.90;;;;;;5053748;28;20047;-69
2021/10/29 08:52:49;;;;;;;2.53;2.33;;;6.70;99.90;;;;;;5052454;28;20036;-68
2021/10/29 08:55:20;;;;;;;0.95;0.88;;;6.80;99.90;;;;;;5068563;28;20115;-69
2021/10/29 08:57:49;;;;;;;;;;;6.70;99.90;;;;;;5052351;28;20059;-68
2021/10/29 09:00:23;;;;;;;8.27;1.90;;;6.70;99.90;;;;;;5051890;28;20365;-68
2021/10/29 09:03:00;;;;;;;0.35;0.35;;;6.70;99.90;;;;;;5067661;28;20045;-68
2021/10/29 09:31:29;;;;;;;1.08;1.02;;;7.30;99.90;;;;;;5065515;28;20056;-68
2021/10/29 09:34:11;;;;;;;2.22;2.10;;;7.40;99.90;;;;;;5066314;28;20021;-68
2021/10/29 09:36:49;;;;;;;0.32;0.28;;;7.40;99.90;;;;;;5052443;28;20028;-69
2021/10/29 09:39:27;;;;;;;4.18;2.00;;;7.50;99.90;;;;;;5052521;28;20033;-68
2021/10/29 09:42:09;;;;;;;2.17;1.85;;;7.50;99.90;;;;;;5067828;28;20083;-68
2021/10/29 09:44:44;;;;;;;0.57;0.57;;;7.60;99.90;;;;;;5052136;28;20098;-68
2021/10/29 09:47:12;;;;;;;3.28;1.83;;;7.60;99.90;;;;;;5051272;28;20033;-68
2021/10/29 09:49:51;;;;;;;0.93;0.55;;;7.50;99.90;;;;;;5066919;28;20503;-68
2021/10/29 09:57:22;;;;;;;0.30;0.30;;;7.80;99.90;;;;;;5052398;28;20116;-68
2021/10/29 09:59:53;;;;;;;0.50;0.50;;;7.80;99.90;;;;;;5034436;28;20035;-68
2021/10/29 10:02:25;;;;;;;0.35;0.35;;;7.70;99.90;;;;;;5051967;28;20029;-69
2021/10/29 10:04:52;;;;;;;17.70;2.83;;;7.90;99.90;;;;;;5067376;28;20033;-68
2021/10/29 10:07:24;;;;;;;1.80;0.90;;;7.90;99.90;;;;;;5052137;28;20029;-68
2021/10/29 10:09:59;;;;;;;1.52;1.33;;;7.90;99.90;;;;;;5067138;28;20067;-70
2021/10/29 10:12:37;;;;;;;0.45;0.45;;;8.00;99.90;;;;;;5066824;28;20025;-69
2021/10/29 10:15:08;;;;;;;5.07;1.45;;;8.10;99.90;;;;;;5066611;28;20041;-70
2021/10/29 10:17:35;;;;;;;0.88;0.88;;;8.20;99.90;;;;;;5067130;28;20033;-69
2021/10/29 10:20:04;;;;;;;4.85;1.75;;;8.40;99.90;;;;;;5067347;28;20510;-69
2021/10/29 10:22:36;;;;;;;2.90;1.77;;;8.40;99.90;;;;;;5051971;28;20041;-69
2021/10/29 10:25:32;;;;;;;1.63;1.52;;;8.60;99.90;;;;;;5066941;28;20033;-66
2021/10/29 10:45:32;;;;;;;0.95;0.95;;;9.60;99.90;;;;;;5051365;28;20113;-66
2021/10/29 10:48:02;;;;;;;1.38;1.08;;;9.80;99.90;;;;;;5062594;28;20033;-67
2021/10/29 10:50:37;;;;;;;0.90;0.55;;;10.30;99.90;;;;;;5051655;28;20037;-66
2021/10/29 10:53:15;;;;;;;3.00;1.95;;;10.60;99.90;;;;;;5066123;28;20033;-66
2021/10/29 11:10:30;;;;;;;2.20;2.05;;;13.20;99.90;;;;;;5055282;28;20100;-66
2021/10/29 11:13:05;;;;;;;1.83;1.23;;;13.30;99.90;;;;;;5055097;28;20429;-66
2021/10/29 11:15:31;;;;;;;4.85;1.10;;;14.00;99.90;;;;;;5055079;28;20032;-66
2021/10/29 11:18:30;;;;;;;0.00;0.00;;;15.20;99.90;;;;;;5054995;28;20497;-66
2021/10/29 11:24:02;;;;;;;5.47;1.27;;;15.70;99.90;;;;;;5054709;28;20151;-67
2021/10/29 11:26:40;;;;;;;2.67;1.38;;;15.70;99.90;;;;;;5069743;28;20087;-65
2021/10/29 11:29:08;;;;;;;0.73;0.68;;;16.60;99.90;;;;;;5055188;28;20094;-67
2021/10/29 11:31:37;;;;;;;0.88;0.88;;;16.30;99.90;;;;;;5054789;28;20394;-67
2021/10/29 11:34:12;;;;;;;1.00;0.90;;;15.50;99.90;;;;;;5054452;28;20431;-67
2021/10/29 11:36:43;;;;;;;1.10;0.82;;;16.40;99.90;;;;;;5054663;28;20029;-67
2021/10/29 11:39:12;;;;;;;1.25;0.80;;;16.90;99.90;;;;;;5054759;28;20025;-66
2021/10/29 11:41:42;;;;;;;3.83;1.45;;;16.10;99.90;;;;;;5069606;28;20033;-67
2021/10/29 11:44:12;;;;;;;1.00;0.68;;;16.50;99.90;;;;;;5054424;28;20405;-67
2021/10/29 11:46:41;;;;;;;0.52;0.47;;;16.40;99.90;;;;;;5054204;28;20033;-68
2021/10/29 11:49:13;;;;;;;0.88;0.75;;;16.10;99.90;;;;;;5053152;28;20036;-66
2021/10/29 11:51:41;;;;;;;0.38;0.38;;;16.00;99.90;;;;;;5054285;28;20112;-66
2021/10/29 11:59:41;;;;;;;1.27;1.17;;;16.40;99.90;;;;;;5054432;28;20060;-67
2021/10/29 12:07:42;;;;;;;0.90;0.90;;;16.90;99.90;;;;;;5053077;28;20458;-67
2021/10/29 12:10:16;;;;;;;0.32;0.32;;;17.20;99.90;;;;;;5053794;28;20032;-67
2021/10/29 12:12:45;;;;;;;0.88;0.60;;;17.10;99.90;;;;;;5053434;28;20393;-67
2021/10/29 12:15:22;;;;;;;0.90;0.85;;;16.80;99.90;;;;;;5054284;28;20477;-67
2021/10/29 12:20:34;;;;;;;0.82;0.77;;;16.40;99.90;;;;;;5068539;28;20041;-67
2021/10/29 12:23:12;;;;;;;0.20;0.20;;;15.90;99.90;;;;;;5068230;28;20436;-67
2021/10/29 12:30:47;;;;;;;1.52;1.08;;;16.40;99.90;;;;;;5053856;28;20029;-67
2021/10/29 13:01:39;;;;;;;1.73;0.95;;;15.80;99.90;;;;;;5068187;28;20052;-67
2021/10/29 13:04:12;;;;;;;0.73;0.73;;;16.20;99.90;;;;;;5052990;28;20127;-67
2021/10/29 13:06:45;;;;;;;0.47;0.47;;;16.00;99.90;;;;;;5068014;28;20044;-67
2021/10/29 13:09:27;;;;;;;0.90;0.90;;;16.50;99.90;;;;;;5053199;28;20139;-67
2021/10/29 13:12:05;;;;;;;0.28;0.28;;;16.20;99.90;;;;;;5067981;28;20064;-67
2021/10/29 13:14:41;;;;;;;1.23;1.02;;;16.20;99.90;;;;;;5067272;28;20040;-67
2021/10/29 13:17:12;;;;;;;0.35;0.30;;;16.50;99.90;;;;;;5067214;28;20094;-67
2021/10/29 13:54:55;;;;;;;1.23;1.13;;;16.50;99.90;;;;;;5052105;28;20033;-67
2021/10/29 14:29:51;;;;;;;1.17;0.80;;;14.80;99.90;;;;;;5065097;28;20110;-67
2021/10/29 14:34:51;;;;;;;0.47;0.47;;;14.50;99.90;;;;;;5052512;28;20060;-66
2021/10/29 14:40:21;;;;;;;2.22;0.82;;;14.60;99.90;;;;;;5055446;28;20063;-67
2021/10/29 14:42:50;;;;;;;1.33;1.10;;;14.70;99.90;;;;;;5054627;28;20037;-67
2021/10/29 14:45:23;;;;;;;0.10;0.10;;;15.10;99.90;;;;;;5055726;28;20124;-68
2021/10/29 14:50:33;;;;;;;1.10;0.90;;;15.30;99.90;;;;;;5055550;28;20029;-69
2021/10/29 15:25:55;;;;;;;0.30;0.30;;;14.80;99.90;;;;;;5055027;28;20389;-69
2021/10/29 15:28:31;;;;;;;0.77;0.77;;;14.90;99.90;;;;;;5053520;28;20401;-69
2021/10/29 15:45:06;;;;;;;0.77;0.70;;;16.10;99.90;;;;;;5044557;28;20041;-71
2021/10/29 15:47:44;;;;;;;3.67;2.03;;;15.70;99.90;;;;;;5065744;28;20433;-71
2021/10/29 15:50:14;;;;;;;0.40;0.40;;;15.10;99.90;;;;;;5034756;28;20057;-71
2021/10/29 15:52:40;;;;;;;2.70;2.38;;;14.50;99.90;;;;;;5048125;28;20080;-66
2021/10/29 15:55:10;;;;;;;6.60;2.72;;;14.60;99.90;;;;;;5051202;28;20427;-66
2021/10/29 15:57:47;;;;;;;0.70;0.70;;;14.50;99.90;;;;;;5069511;28;20029;-68
2021/10/29 16:00:52;;;;;;;7.03;3.55;;;13.90;99.90;;;;;;5063861;28;20116;-69
2021/10/29 16:17:03;;;;;;;5.63;0.95;;;12.80;99.90;;;;;;5053783;28;20094;-67
2021/10/29 16:19:29;;;;;;;1.00;0.95;;;12.60;99.90;;;;;;5053807;28;20489;-68
2021/10/29 16:21:56;;;;;;;1.27;1.10;;;12.50;99.90;;;;;;5069122;28;20056;-68
2021/10/29 16:24:22;;;;;;;1.08;1.00;;;12.30;99.90;;;;;;5069069;28;20033;-68
2021/10/29 16:26:50;;;;;;;3.47;1.83;;;12.00;99.90;;;;;;5066022;28;20029;-69
2021/10/29 16:29:21;;;;;;;3.85;2.17;;;11.90;99.90;;;;;;5033892;28;20079;-68
2021/10/29 16:31:48;;;;;;;2.03;1.70;;;11.80;99.90;;;;;;5065706;28;20029;-68
2021/10/29 16:34:14;;;;;;;0.98;0.90;;;11.70;99.90;;;;;;5033579;28;20508;-68
2021/10/29 16:36:41;;;;;;;1.55;1.45;;;11.60;99.90;;;;;;5048981;28;20050;-68
2021/10/29 16:39:08;;;;;;;0.35;0.35;;;11.50;99.90;;;;;;5033581;28;20398;-68
2021/10/29 16:41:34;;;;;;;1.60;1.50;;;11.40;99.90;;;;;;5033528;28;20391;-68
2021/10/29 16:44:00;;;;;;;1.13;1.08;;;11.20;99.90;;;;;;5033573;28;20037;-68
2021/10/29 16:46:26;;;;;;;1.50;1.35;;;11.10;99.90;;;;;;5033771;28;20025;-68
2021/10/29 16:48:52;;;;;;;0.40;0.40;;;11.00;99.90;;;;;;5048344;28;20043;-67
2021/10/29 16:51:18;;;;;;;0.25;0.25;;;11.00;99.90;;;;;;5048369;28;20036;-70
2021/10/29 16:53:44;;;;;;;6.70;2.28;;;10.90;99.90;;;;;;5057578;28;20116;-66
2021/10/29 16:56:12;;;;;;;0.45;0.40;;;10.90;99.90;;;;;;5068255;28;20049;-71
2021/10/29 16:58:42;;;;;;;2.20;1.23;;;10.80;99.90;;;;;;5067044;28;20044;-78
2021/10/29 17:01:08;;;;;;;14.18;2.03;;;10.80;99.90;;;;;;5051676;28;20094;-70
2021/10/29 17:03:34;;;;;;;2.90;2.20;;;10.70;99.90;;;;;;5051872;28;20040;-69
2021/10/29 17:06:00;;;;;;;1.05;0.95;;;10.60;99.90;;;;;;5052582;28;20083;-71
2021/10/29 17:08:27;;;;;;;0.90;0.88;;;10.60;99.90;;;;;;5051818;28;20076;-71
2021/10/29 17:10:53;;;;;;;0.65;0.65;;;10.60;99.90;;;;;;5051774;28;20040;-70
2021/10/29 17:13:19;;;;;;;0.63;0.50;;;10.50;99.90;;;;;;5052739;28;20051;-68
2021/10/29 17:15:45;;;;;;;1.70;1.60;;;10.40;99.90;;;;;;5053186;28;20041;-69
2021/10/29 17:18:14;;;;;;;2.22;2.08;;;10.40;99.90;;;;;;5052481;28;20362;-67
2021/10/29 17:20:50;;;;;;;1.10;1.08;;;10.40;99.90;;;;;;5130190;27;20414;-71
2021/10/29 17:23:16;;;;;;;1.45;1.35;;;10.30;99.90;;;;;;5106915;28;20397;-70
2021/10/29 17:25:42;;;;;;;2.85;2.35;;;10.30;99.90;;;;;;5109299;28;20032;-69
2021/10/29 17:28:07;;;;;;;1.83;1.05;;;10.30;99.90;;;;;;5108510;28;20541;-68
2021/10/29 17:30:33;;;;;;;1.38;1.35;;;10.30;99.90;;;;;;5109887;28;20391;-68
2021/10/29 17:33:01;;;;;;;1.23;1.13;;;10.20;99.90;;;;;;5109854;28;20130;-69
2021/10/29 17:35:26;;;;;;;2.03;1.88;;;10.20;99.90;;;;;;5108148;28;20024;-69
2021/10/29 17:37:52;;;;;;;0.73;0.73;;;10.20;99.90;;;;;;5106897;28;20400;-68
2021/10/29 17:40:18;;;;;;;0.75;0.75;;;10.20;99.90;;;;;;5108998;28;20035;-68
2021/10/29 17:42:44;;;;;;;1.50;1.38;;;10.10;99.90;;;;;;5108546;28;20056;-68
2021/10/29 17:45:14;;;;;;;1.60;1.30;;;10.10;99.90;;;;;;5108062;28;20032;-68
2021/10/29 17:47:43;;;;;;;2.60;0.75;;;10.00;99.90;;;;;;5106686;28;20024;-68
2021/10/29 17:50:10;;;;;;;2.03;1.80;;;9.80;99.90;;;;;;5108373;28;20039;-68
2021/10/29 17:52:38;;;;;;;0.60;0.60;;;9.70;99.90;;;;;;5109139;28;20035;-68
2021/10/29 17:55:06;;;;;;;1.00;1.00;;;9.70;99.90;;;;;;5109341;28;20027;-73
2021/10/29 17:57:46;;;;;;;0.55;0.55;;;9.60;99.90;;;;;;5108449;28;20035;-73
2021/10/29 18:00:14;;;;;;;2.40;2.20;;;9.50;99.90;;;;;;5108749;28;20028;-73
2021/10/29 18:02:43;;;;;;;2.30;2.10;;;9.40;99.90;;;;;;5109388;28;20065;-70
2021/10/29 18:05:20;;;;;;;2.28;2.08;;;9.50;99.90;;;;;;5109188;28;20066;-70
2021/10/29 18:07:46;;;;;;;2.00;1.80;;;9.50;99.90;;;;;;5107713;28;20036;-70
2021/10/29 18:10:12;;;;;;;4.10;2.10;;;9.50;99.90;;;;;;5109183;28;20032;-70
2021/10/29 18:12:38;;;;;;;3.50;2.47;;;9.40;99.90;;;;;;5109140;28;20173;-63
2021/10/29 18:15:06;;;;;;;0.90;0.90;;;9.40;99.90;;;;;;5108879;28;20593;-66